createdAt,value
2023-02-02T00:01:32.463Z,6.02
2023-02-02T00:04:01.382Z,6.01
2023-02-02T00:06:30.026Z,6.02
2023-02-02T00:08:59.057Z,6.01
2023-02-02T00:11:26.373Z,6.01
2023-02-02T00:13:53.769Z,6.03
2023-02-02T00:16:26.747Z,6.05
2023-02-02T00:18:54.710Z,6.04
2023-02-02T00:21:21.318Z,6.04
2023-02-02T00:23:48.040Z,6.08
2023-02-02T00:26:16.281Z,6.09
2023-02-02T00:28:42.925Z,6.09
2023-02-02T00:31:10.567Z,6.09
2023-02-02T00:33:37.284Z,6.10
2023-02-02T00:36:05.569Z,6.09
2023-02-02T00:38:34.645Z,6.09
2023-02-02T00:41:01.275Z,6.08
2023-02-02T00:43:29.059Z,6.05
2023-02-02T00:45:56.301Z,6.01
2023-02-02T00:48:23.038Z,5.96
2023-02-02T00:50:49.975Z,5.94
2023-02-02T00:53:16.739Z,5.94
2023-02-02T00:55:43.990Z,5.92
2023-02-02T00:58:10.643Z,5.91
2023-02-02T01:00:37.845Z,5.89
2023-02-02T01:03:04.838Z,5.89
2023-02-02T01:05:32.587Z,5.89
2023-02-02T01:07:59.265Z,5.88
2023-02-02T01:10:26.301Z,5.87
2023-02-02T01:12:52.928Z,5.87
2023-02-02T01:15:19.609Z,5.87
2023-02-02T01:17:46.180Z,5.87
2023-02-02T01:20:18.652Z,5.90
2023-02-02T01:22:46.930Z,5.93
2023-02-02T01:25:13.896Z,5.94
2023-02-02T01:27:40.859Z,5.97
2023-02-02T01:30:08.398Z,5.98
2023-02-02T01:32:35.201Z,6.01
2023-02-02T01:35:01.867Z,6.03
2023-02-02T01:37:28.479Z,6.05
2023-02-02T01:39:55.185Z,6.08
2023-02-02T01:42:24.713Z,6.07
2023-02-02T01:45:12.950Z,6.10
2023-02-02T01:47:43.667Z,6.14
2023-02-02T01:50:13.837Z,6.18
2023-02-02T01:52:43.696Z,6.19
2023-02-02T01:55:12.996Z,6.24
2023-02-02T01:57:45.274Z,6.28
2023-02-02T02:00:14.859Z,6.30
2023-02-02T02:02:46.487Z,6.32
2023-02-02T02:05:18.767Z,6.35
2023-02-02T02:07:49.076Z,6.38
2023-02-02T02:10:18.007Z,6.42
2023-02-02T02:12:45.413Z,6.46
2023-02-02T02:15:30.890Z,6.47
2023-02-02T02:18:03.312Z,6.55
2023-02-02T02:21:05.535Z,6.59
2023-02-02T02:23:59.767Z,6.60
2023-02-02T02:26:45.170Z,6.61
2023-02-02T02:29:17.732Z,6.62
2023-02-02T02:32:05.815Z,6.63
2023-02-02T02:34:38.475Z,6.63
2023-02-02T02:37:18.816Z,6.65
2023-02-02T02:40:08.162Z,6.66
2023-02-02T02:42:40.351Z,6.65
2023-02-02T02:45:09.286Z,6.67
2023-02-02T02:47:37.418Z,6.69
2023-02-02T02:50:05.083Z,6.69
2023-02-02T02:52:33.138Z,6.69
2023-02-02T02:55:01.072Z,6.69
2023-02-02T02:58:02.677Z,6.71
2023-02-02T03:00:38.486Z,6.73
2023-02-02T03:03:08.000Z,6.76
2023-02-02T03:06:00.535Z,6.78
2023-02-02T03:08:27.039Z,6.78
2023-02-02T03:10:55.651Z,6.80
2023-02-02T03:13:22.383Z,6.80
2023-02-02T03:15:49.038Z,6.83
2023-02-02T03:18:17.748Z,6.84
2023-02-02T03:20:45.400Z,6.85
2023-02-02T03:23:12.588Z,6.86
2023-02-02T03:25:39.301Z,6.87
2023-02-02T03:28:06.888Z,6.88
2023-02-02T03:30:34.604Z,6.88
2023-02-02T03:33:01.371Z,6.87
2023-02-02T03:35:28.205Z,6.87
2023-02-02T03:37:55.112Z,6.88
2023-02-02T03:40:21.672Z,6.89
2023-02-02T03:42:48.396Z,6.88
2023-02-02T03:45:15.038Z,6.88
2023-02-02T03:47:41.692Z,6.89
2023-02-02T03:50:10.004Z,6.89
2023-02-02T03:52:37.000Z,6.87
2023-02-02T03:55:04.119Z,6.87
2023-02-02T03:57:30.719Z,6.85
2023-02-02T03:59:57.411Z,6.83
2023-02-02T04:02:24.123Z,6.82
2023-02-02T04:04:50.823Z,6.79
2023-02-02T04:07:17.424Z,6.78
2023-02-02T04:09:43.968Z,6.75
2023-02-02T04:12:10.733Z,6.75
2023-02-02T04:14:37.483Z,6.75
2023-02-02T04:17:04.135Z,6.74
2023-02-02T04:19:30.777Z,6.74
2023-02-02T04:21:57.529Z,6.72
2023-02-02T04:24:24.205Z,6.72
2023-02-02T04:26:50.893Z,6.72
2023-02-02T04:29:18.677Z,6.73
2023-02-02T04:31:45.379Z,6.71
2023-02-02T04:34:12.248Z,6.70
2023-02-02T04:36:39.467Z,6.69
2023-02-02T04:39:06.251Z,6.68
2023-02-02T04:41:34.083Z,6.69
2023-02-02T04:44:00.790Z,6.68
2023-02-02T04:46:28.608Z,6.67
2023-02-02T04:48:55.360Z,6.65
2023-02-02T04:51:25.207Z,6.65
2023-02-02T04:53:52.788Z,6.65
2023-02-02T04:56:19.506Z,6.64
2023-02-02T04:58:47.125Z,6.64
2023-02-02T05:01:19.639Z,6.65
2023-02-02T05:03:47.161Z,6.65
2023-02-02T05:06:16.019Z,6.63
2023-02-02T05:08:43.508Z,6.64
2023-02-02T05:11:12.294Z,6.66
2023-02-02T05:13:39.051Z,6.66
2023-02-02T05:16:06.796Z,6.66
2023-02-02T05:18:33.616Z,6.67
2023-02-02T05:21:01.722Z,6.68
2023-02-02T05:23:29.008Z,6.69
2023-02-02T05:25:56.267Z,6.71
2023-02-02T05:28:23.936Z,6.72
2023-02-02T05:30:51.115Z,6.72
2023-02-02T05:33:20.837Z,6.72
2023-02-02T05:35:48.373Z,6.72
2023-02-02T05:38:16.486Z,6.73
2023-02-02T05:40:43.288Z,6.73
2023-02-02T05:43:09.958Z,6.73
2023-02-02T05:45:36.662Z,6.75
2023-02-02T05:48:03.570Z,6.77
2023-02-02T05:50:30.702Z,6.78
2023-02-02T05:52:58.784Z,6.78
2023-02-02T05:55:25.804Z,6.78
2023-02-02T05:57:52.574Z,6.81
2023-02-02T06:00:19.584Z,6.82
2023-02-02T06:02:46.318Z,6.83
2023-02-02T06:05:13.145Z,6.85
2023-02-02T06:07:39.733Z,6.87
2023-02-02T06:10:06.904Z,6.92
2023-02-02T06:12:33.559Z,6.94
2023-02-02T06:15:00.314Z,6.98
2023-02-02T06:17:27.691Z,7.02
2023-02-02T06:19:54.483Z,7.04
2023-02-02T06:22:21.052Z,7.08
2023-02-02T06:24:47.808Z,7.10
2023-02-02T06:27:14.449Z,7.14
2023-02-02T06:29:41.356Z,7.16
2023-02-02T06:32:07.960Z,7.18
2023-02-02T06:34:34.567Z,7.18
2023-02-02T06:37:01.422Z,7.21
2023-02-02T06:39:28.018Z,7.22
2023-02-02T06:41:54.887Z,7.25
2023-02-02T06:44:21.508Z,7.25
2023-02-02T06:46:48.261Z,7.24
2023-02-02T06:49:15.165Z,7.21
2023-02-02T06:51:41.794Z,7.19
2023-02-02T06:54:08.425Z,7.15
2023-02-02T06:56:35.237Z,7.11
2023-02-02T06:59:01.873Z,7.06
2023-02-02T07:01:29.654Z,7.03
2023-02-02T07:03:57.537Z,7.01
2023-02-02T07:06:26.795Z,7.01
2023-02-02T07:09:01.829Z,6.99
2023-02-02T07:11:36.971Z,6.99
2023-02-02T07:14:09.641Z,6.98
2023-02-02T07:16:36.375Z,6.99
2023-02-02T07:19:03.202Z,6.99
2023-02-02T07:21:35.752Z,7.00
2023-02-02T07:24:03.969Z,7.00
2023-02-02T07:26:30.754Z,7.01
2023-02-02T07:28:57.464Z,6.99
2023-02-02T07:31:26.573Z,6.98
2023-02-02T07:33:53.915Z,6.98
2023-02-02T07:36:23.979Z,6.99
2023-02-02T07:38:57.556Z,6.97
2023-02-02T07:41:25.144Z,6.96
2023-02-02T07:43:52.353Z,6.97
2023-02-02T07:46:20.076Z,6.97
2023-02-02T07:48:47.040Z,6.96
2023-02-02T07:51:16.359Z,6.94
2023-02-02T07:53:46.587Z,6.95
2023-02-02T07:56:24.595Z,6.94
2023-02-02T07:58:53.400Z,6.93
2023-02-02T08:01:23.009Z,6.91
2023-02-02T08:03:50.899Z,6.93
2023-02-02T08:06:21.704Z,6.93
2023-02-02T08:08:49.135Z,6.94
2023-02-02T08:11:19.220Z,6.93
2023-02-02T08:13:49.895Z,6.94
2023-02-02T08:16:16.861Z,6.95
2023-02-02T08:18:44.019Z,6.94
2023-02-02T08:21:11.960Z,6.95
2023-02-02T08:23:40.515Z,6.93
2023-02-02T08:26:16.706Z,6.93
2023-02-02T08:28:45.273Z,6.94
2023-02-02T08:31:14.411Z,6.97
2023-02-02T08:33:42.318Z,6.99
2023-02-02T08:36:15.881Z,7.00
2023-02-02T08:38:42.858Z,6.99
2023-02-02T08:41:12.971Z,7.00
2023-02-02T08:43:40.944Z,7.01
2023-02-02T08:46:14.596Z,7.03
2023-02-02T08:48:41.926Z,7.05
2023-02-02T08:51:11.371Z,7.07
2023-02-02T08:53:38.564Z,7.07
2023-02-02T08:56:13.328Z,7.07
2023-02-02T08:58:40.451Z,7.09
2023-02-02T09:01:18.603Z,7.12
2023-02-02T09:03:45.950Z,7.14
2023-02-02T09:06:17.998Z,7.14
2023-02-02T09:08:45.583Z,7.14
2023-02-02T09:11:20.245Z,7.15
2023-02-02T09:13:49.291Z,7.15
2023-02-02T09:16:18.539Z,7.16
2023-02-02T09:18:45.898Z,7.16
2023-02-02T09:21:15.813Z,7.18
2023-02-02T09:23:44.390Z,7.17
2023-02-02T09:26:22.729Z,7.18
2023-02-02T09:28:52.904Z,7.20
2023-02-02T09:31:19.927Z,7.15
2023-02-02T09:33:46.688Z,7.14
2023-02-02T09:36:17.817Z,7.11
2023-02-02T09:38:44.817Z,7.12
2023-02-02T09:41:33.108Z,7.14
2023-02-02T09:44:37.006Z,7.14
2023-02-02T09:47:14.902Z,7.11
2023-02-02T09:49:56.868Z,7.10
2023-02-02T09:52:28.335Z,7.07
2023-02-02T09:55:04.784Z,7.06
2023-02-02T09:57:43.734Z,7.07
2023-02-02T10:00:29.449Z,7.13
2023-02-02T10:03:02.793Z,7.13
2023-02-02T10:05:40.952Z,7.12
2023-02-02T10:08:16.636Z,7.15
2023-02-02T10:10:48.299Z,7.17
2023-02-02T10:13:22.112Z,7.23
2023-02-02T10:16:01.588Z,7.28
2023-02-02T10:18:50.069Z,7.33
2023-02-02T10:21:49.060Z,7.39
2023-02-02T10:24:29.087Z,7.48
2023-02-02T10:26:59.400Z,7.56
2023-02-02T10:29:48.073Z,7.62
2023-02-02T10:32:17.150Z,7.67
2023-02-02T10:35:12.502Z,7.72
2023-02-02T10:37:46.605Z,7.64
2023-02-02T10:40:34.500Z,7.53
2023-02-02T10:43:39.481Z,7.53
2023-02-02T10:46:12.121Z,7.55
2023-02-02T10:48:39.618Z,7.59
2023-02-02T10:51:16.168Z,7.69
2023-02-02T10:53:50.360Z,7.76
2023-02-02T10:56:19.963Z,7.82
2023-02-02T10:58:57.892Z,7.88
2023-02-02T11:01:24.783Z,7.91
2023-02-02T11:04:11.587Z,7.94
2023-02-02T11:06:50.954Z,7.95
2023-02-02T11:09:24.282Z,7.98
2023-02-02T11:12:28.367Z,7.99
2023-02-02T11:15:25.840Z,8.01
2023-02-02T11:17:52.566Z,8.02
2023-02-02T11:20:46.818Z,8.02
2023-02-02T11:23:19.612Z,8.03
2023-02-02T11:25:47.059Z,8.05
2023-02-02T11:28:20.405Z,8.04
2023-02-02T11:30:52.359Z,8.07
2023-02-02T11:33:34.174Z,8.06
2023-02-02T11:36:17.759Z,8.08
2023-02-02T11:38:44.798Z,8.09
2023-02-02T11:41:13.917Z,8.10
2023-02-02T11:43:51.117Z,8.12
2023-02-02T11:46:22.617Z,8.11
2023-02-02T11:49:16.720Z,8.12
2023-02-02T11:51:44.849Z,8.13
2023-02-02T11:54:33.018Z,8.11
2023-02-02T11:57:08.218Z,8.12
2023-02-02T11:59:39.155Z,8.10
2023-02-02T12:02:29.076Z,8.12
2023-02-02T12:05:21.886Z,8.11
2023-02-02T12:07:49.120Z,8.11
2023-02-02T12:10:54.802Z,8.10
2023-02-02T12:13:27.065Z,8.11
2023-02-02T12:16:33.909Z,8.11
2023-02-02T12:19:00.564Z,8.12
2023-02-02T12:21:48.422Z,8.13
2023-02-02T12:24:32.972Z,8.13
2023-02-02T12:27:17.156Z,8.14
2023-02-02T12:29:46.864Z,8.15
2023-02-02T12:32:34.096Z,8.14
2023-02-02T12:35:22.884Z,8.15
2023-02-02T12:38:10.945Z,8.16
2023-02-02T12:40:55.904Z,8.15
2023-02-02T12:44:01.230Z,8.17
2023-02-02T12:46:49.818Z,8.20
2023-02-02T12:49:19.326Z,8.20
2023-02-02T12:52:06.714Z,8.20
2023-02-02T12:54:46.697Z,8.23
2023-02-02T12:57:31.133Z,8.24
2023-02-02T12:59:57.668Z,8.24
2023-02-02T13:02:49.133Z,8.26
2023-02-02T13:05:43.463Z,8.26
2023-02-02T13:08:14.887Z,8.26
2023-02-02T13:10:45.782Z,8.29
2023-02-02T13:13:20.407Z,8.29
2023-02-02T13:15:52.881Z,8.28
2023-02-02T13:18:45.857Z,8.29
2023-02-02T13:21:16.923Z,8.29
2023-02-02T13:23:50.362Z,8.32
2023-02-02T13:26:20.664Z,8.32
2023-02-02T13:29:06.040Z,8.32
2023-02-02T13:31:45.153Z,8.36
2023-02-02T13:34:22.965Z,8.36
2023-02-02T13:37:02.725Z,8.36
2023-02-02T13:39:42.704Z,8.37
2023-02-02T13:42:23.547Z,8.37
2023-02-02T13:44:56.196Z,8.36
2023-02-02T13:47:38.989Z,8.35
2023-02-02T13:50:15.484Z,8.35
2023-02-02T13:52:48.139Z,8.36
2023-02-02T13:55:24.158Z,8.34
2023-02-02T13:58:04.216Z,8.35
2023-02-02T14:00:48.118Z,8.36
2023-02-02T14:03:33.826Z,8.37
2023-02-02T14:06:05.313Z,8.34
2023-02-02T14:08:32.474Z,8.32
2023-02-02T14:11:02.426Z,8.30
2023-02-02T14:14:04.492Z,8.29
2023-02-02T14:16:31.014Z,8.30
2023-02-02T14:19:01.829Z,8.29
2023-02-02T14:21:31.683Z,8.28
2023-02-02T14:24:00.127Z,8.28
2023-02-02T14:26:52.621Z,8.27
2023-02-02T14:29:39.575Z,8.26
2023-02-02T14:32:08.783Z,8.29
2023-02-02T14:34:39.654Z,8.30
2023-02-02T14:37:06.985Z,8.28
2023-02-02T14:39:42.681Z,8.30
2023-02-02T14:43:06.013Z,8.28
2023-02-02T14:45:40.694Z,8.29
2023-02-02T14:48:07.216Z,8.30
2023-02-02T14:50:39.927Z,8.31
2023-02-02T14:53:13.319Z,8.32
2023-02-02T14:56:01.578Z,8.33
2023-02-02T14:58:34.085Z,8.35
2023-02-02T15:01:17.446Z,8.34
2023-02-02T15:03:45.432Z,8.31
2023-02-02T15:06:24.358Z,8.33
2023-02-02T15:09:23.616Z,8.33
2023-02-02T15:12:36.026Z,8.34
2023-02-02T15:15:17.905Z,8.33
2023-02-02T15:18:10.454Z,8.32
2023-02-02T15:20:47.185Z,8.30
2023-02-02T15:23:29.897Z,8.28
2023-02-02T15:26:04.792Z,8.30
2023-02-02T15:28:58.277Z,8.30
2023-02-02T15:31:44.429Z,8.30
2023-02-02T15:34:30.833Z,8.29
2023-02-02T15:37:02.830Z,8.28
2023-02-02T15:39:41.859Z,8.26
2023-02-02T15:42:53.058Z,8.27
2023-02-02T15:45:29.334Z,8.28
2023-02-02T15:47:59.487Z,8.27
2023-02-02T15:50:27.301Z,8.26
2023-02-02T15:52:55.414Z,8.25
2023-02-02T15:55:29.120Z,8.23
2023-02-02T15:57:55.879Z,8.23
2023-02-02T16:00:22.683Z,8.23
2023-02-02T16:02:53.794Z,8.22
2023-02-02T16:05:48.769Z,8.20
2023-02-02T16:08:20.103Z,8.21
2023-02-02T16:10:49.397Z,8.21
2023-02-02T16:13:27.670Z,8.21
2023-02-02T16:15:59.299Z,8.22
2023-02-02T16:18:26.450Z,8.22
2023-02-02T16:20:54.984Z,8.22
2023-02-02T16:23:30.565Z,8.21
2023-02-02T16:26:00.115Z,8.18
2023-02-02T16:28:27.636Z,8.19
2023-02-02T16:30:54.863Z,8.20
2023-02-02T16:33:30.269Z,8.17
2023-02-02T16:35:57.495Z,8.16
2023-02-02T16:38:32.232Z,8.17
2023-02-02T16:41:06.461Z,8.18
2023-02-02T16:43:34.252Z,8.17
2023-02-02T16:46:12.816Z,8.16
2023-02-02T16:49:00.502Z,8.16
2023-02-02T16:51:28.419Z,8.14
2023-02-02T16:54:07.131Z,8.14
2023-02-02T16:56:38.630Z,8.15
2023-02-02T16:59:27.930Z,8.14
2023-02-02T17:02:25.193Z,8.15
2023-02-02T17:05:19.279Z,8.15
2023-02-02T17:07:51.722Z,8.16
2023-02-02T17:10:18.372Z,8.16
2023-02-02T17:12:49.357Z,8.18
2023-02-02T17:15:18.683Z,8.18
2023-02-02T17:17:49.633Z,8.18
2023-02-02T17:20:19.412Z,8.19
2023-02-02T17:22:49.311Z,8.18
2023-02-02T17:25:30.392Z,8.18
2023-02-02T17:27:59.116Z,8.20
2023-02-02T17:30:26.670Z,8.19
2023-02-02T17:32:53.606Z,8.19
2023-02-02T17:35:53.030Z,8.19
2023-02-02T17:38:21.779Z,8.18
2023-02-02T17:40:49.607Z,8.18
2023-02-02T17:43:16.501Z,8.17
2023-02-02T17:45:43.626Z,8.17
2023-02-02T17:48:12.599Z,8.17
2023-02-02T17:50:40.793Z,8.18
2023-02-02T17:53:11.955Z,8.19
2023-02-02T17:55:42.040Z,8.20
2023-02-02T17:58:10.591Z,8.21
2023-02-02T18:00:38.933Z,8.21
2023-02-02T18:03:22.478Z,8.22
2023-02-02T18:05:49.684Z,8.22
2023-02-02T18:08:16.707Z,8.22
2023-02-02T18:10:43.678Z,8.24
2023-02-02T18:13:21.577Z,8.24
2023-02-02T18:15:49.567Z,8.24
2023-02-02T18:18:16.822Z,8.24
2023-02-02T18:20:49.232Z,8.25
2023-02-02T18:23:16.933Z,8.25
2023-02-02T18:25:44.899Z,8.24
2023-02-02T18:28:11.689Z,8.25
2023-02-02T18:30:40.052Z,8.26
2023-02-02T18:33:10.305Z,8.28
2023-02-02T18:35:45.729Z,8.29
2023-02-02T18:38:13.229Z,8.30
2023-02-02T18:40:40.109Z,8.30
2023-02-02T18:43:06.923Z,8.30
2023-02-02T18:45:33.540Z,8.29
2023-02-02T18:48:00.178Z,8.29
2023-02-02T18:50:28.118Z,8.28
2023-02-02T18:52:56.737Z,8.28
2023-02-02T18:55:24.204Z,8.27
2023-02-02T18:57:51.101Z,8.28
2023-02-02T19:00:19.329Z,8.29
2023-02-02T19:02:45.927Z,8.31
2023-02-02T19:05:31.312Z,8.31
2023-02-02T19:08:00.123Z,8.30
2023-02-02T19:10:28.328Z,8.29
2023-02-02T19:13:02.068Z,8.28
2023-02-02T19:15:29.132Z,8.29
2023-02-02T19:17:55.962Z,8.29
2023-02-02T19:20:26.933Z,8.29
2023-02-02T19:23:06.783Z,8.31
2023-02-02T19:25:33.542Z,8.30
2023-02-02T19:28:07.127Z,8.31
2023-02-02T19:30:33.940Z,8.31
2023-02-02T19:33:02.252Z,8.32
2023-02-02T19:35:29.492Z,8.32
2023-02-02T19:38:01.775Z,8.32
2023-02-02T19:40:28.927Z,8.32
2023-02-02T19:43:13.677Z,8.32
2023-02-02T19:45:40.904Z,8.33
2023-02-02T19:48:17.093Z,8.31
2023-02-02T19:50:44.419Z,8.30
2023-02-02T19:53:20.762Z,8.28
2023-02-02T19:55:48.060Z,8.27
2023-02-02T19:58:17.369Z,8.25
2023-02-02T20:00:46.916Z,8.26
2023-02-02T20:03:20.221Z,8.25
2023-02-02T20:05:48.739Z,8.25
2023-02-02T20:08:23.402Z,8.26
2023-02-02T20:10:54.830Z,8.27
2023-02-02T20:13:31.770Z,8.29
2023-02-02T20:16:03.965Z,8.29
2023-02-02T20:18:44.392Z,8.28
2023-02-02T20:21:45.793Z,8.29
2023-02-02T20:24:29.801Z,8.29
2023-02-02T20:27:00.667Z,8.28
2023-02-02T20:29:38.288Z,8.29
2023-02-02T20:32:08.550Z,8.29
2023-02-02T20:34:43.529Z,8.28
2023-02-02T20:37:13.107Z,8.30
2023-02-02T20:39:47.869Z,8.29
2023-02-02T20:42:15.351Z,8.28
2023-02-02T20:44:42.362Z,8.30
2023-02-02T20:47:09.548Z,8.30
2023-02-02T20:49:37.663Z,8.31
2023-02-02T20:52:08.204Z,8.32
2023-02-02T20:54:34.842Z,8.33
2023-02-02T20:57:02.346Z,8.33
2023-02-02T20:59:29.730Z,8.32
2023-02-02T21:01:56.951Z,8.33
2023-02-02T21:04:23.807Z,8.33
2023-02-02T21:06:51.573Z,8.33
2023-02-02T21:09:18.240Z,8.34
2023-02-02T21:11:45.523Z,8.34
2023-02-02T21:14:12.201Z,8.35
2023-02-02T21:16:39.007Z,8.34
2023-02-02T21:19:05.662Z,8.36
2023-02-02T21:21:32.369Z,8.37
2023-02-02T21:24:00.810Z,8.38
2023-02-02T21:26:29.893Z,8.39
2023-02-02T21:28:59.515Z,8.39
2023-02-02T21:31:27.114Z,8.39
2023-02-02T21:33:54.038Z,8.40
2023-02-02T21:36:34.662Z,8.40
2023-02-02T21:39:32.759Z,8.40
2023-02-02T21:42:08.539Z,8.40
2023-02-02T21:44:43.902Z,8.40
2023-02-02T21:47:40.214Z,8.42
2023-02-02T21:50:24.763Z,8.42
2023-02-02T21:52:53.891Z,8.42
2023-02-02T21:55:36.713Z,8.42
2023-02-02T21:58:12.407Z,8.42
2023-02-02T22:00:39.066Z,8.42
2023-02-02T22:03:24.807Z,8.44
2023-02-02T22:05:51.439Z,8.44
2023-02-02T22:08:25.643Z,8.43
2023-02-02T22:10:52.216Z,8.45
2023-02-02T22:13:23.251Z,8.45
2023-02-02T22:15:53.263Z,8.45
2023-02-02T22:18:23.083Z,8.46
2023-02-02T22:20:51.753Z,8.45
2023-02-02T22:23:20.725Z,8.46
2023-02-02T22:25:49.934Z,8.45
2023-02-02T22:28:22.513Z,8.45
2023-02-02T22:30:52.080Z,8.46
2023-02-02T22:33:19.454Z,8.47
2023-02-02T22:35:46.506Z,8.48
2023-02-02T22:38:18.358Z,8.49
2023-02-02T22:40:46.067Z,8.47
2023-02-02T22:43:19.237Z,8.48
2023-02-02T22:45:46.534Z,8.49
2023-02-02T22:48:15.341Z,8.50
2023-02-02T22:50:42.861Z,8.49
2023-02-02T22:53:10.857Z,8.50
2023-02-02T22:55:37.720Z,8.49
2023-02-02T22:58:04.270Z,8.52
2023-02-02T23:00:36.130Z,8.53
2023-02-02T23:03:02.765Z,8.51
2023-02-02T23:05:29.478Z,8.52
2023-02-02T23:07:56.511Z,8.52
2023-02-02T23:10:27.531Z,8.52
2023-02-02T23:12:55.910Z,8.51
2023-02-02T23:15:22.964Z,8.52
2023-02-02T23:17:49.945Z,8.53
2023-02-02T23:20:18.175Z,8.51
2023-02-02T23:22:44.786Z,8.52
2023-02-02T23:25:12.706Z,8.49
2023-02-02T23:27:39.798Z,8.49
2023-02-02T23:30:09.049Z,8.48
2023-02-02T23:32:35.891Z,8.48
2023-02-02T23:35:03.211Z,8.47
2023-02-02T23:37:29.746Z,8.48
2023-02-02T23:39:57.453Z,8.49
2023-02-02T23:42:25.674Z,8.48
2023-02-02T23:44:53.066Z,8.47
2023-02-02T23:47:19.911Z,8.48
2023-02-02T23:49:47.020Z,8.47
2023-02-02T23:52:14.036Z,8.47
2023-02-02T23:54:40.871Z,8.48
2023-02-02T23:57:07.400Z,8.48
2023-02-02T23:59:34.002Z,8.47
